Time,TemperatureF,DewpointF,PressureIn,WindDirection,WindDirectionDegrees,WindSpeedMPH,WindSpeedGustMPH,Humidity,HourlyPrecipIn,Conditions,Clouds,dailyrainin,SolarRadiationWatts/m^2,SoftwareType,DateUTC
2013-03-25 00:12:00,26.0,25.0,-100.00,NNW,329,7.0,14.0,94,0.00,,,0.07,0.000000,,2013-03-25 05:12:00,
2013-03-25 00:22:00,26.0,25.0,-100.00,NNW,329,7.0,14.0,94,0.00,,,0.07,0.000000,,2013-03-25 05:22:00,
2013-03-25 00:32:00,26.0,25.0,-100.00,NNW,329,7.0,14.0,94,0.00,,,0.07,0.000000,,2013-03-25 05:32:00,
2013-03-25 00:42:00,26.0,25.0,-100.00,NNW,329,7.0,14.0,94,0.00,,,0.07,0.000000,,2013-03-25 05:42:00,
2013-03-25 01:12:00,26.0,25.0,-100.00,NNW,329,8.0,15.0,95,0.00,,,0.07,0.000000,,2013-03-25 06:12:00,
2013-03-25 01:22:00,26.0,25.0,-100.00,NNW,329,8.0,15.0,95,0.00,,,0.07,0.000000,,2013-03-25 06:22:00,
2013-03-25 01:32:00,26.0,25.0,-100.00,NNW,329,8.0,15.0,95,0.00,,,0.07,0.000000,,2013-03-25 06:32:00,
2013-03-25 01:42:00,26.0,25.0,-100.00,NNW,329,8.0,15.0,95,0.00,,,0.07,0.000000,,2013-03-25 06:42:00,
2013-03-25 02:12:00,27.0,27.0,-100.00,NW,325,8.0,15.0,98,0.00,,,0.07,0.000000,,2013-03-25 07:12:00,
2013-03-25 02:22:00,27.0,27.0,-100.00,NW,325,8.0,15.0,98,0.00,,,0.07,0.000000,,2013-03-25 07:22:00,
2013-03-25 02:32:00,27.0,27.0,-100.00,NW,325,8.0,15.0,98,0.00,,,0.07,0.000000,,2013-03-25 07:32:00,
2013-03-25 02:42:00,27.0,27.0,-100.00,NW,325,8.0,15.0,98,0.00,,,0.07,0.000000,,2013-03-25 07:42:00,
2013-03-25 03:12:00,26.0,25.0,-100.00,NNW,334,10.0,19.0,97,0.00,,,0.07,0.000000,,2013-03-25 08:12:00,
2013-03-25 03:23:00,26.0,25.0,-100.00,NNW,334,10.0,19.0,97,0.00,,,0.07,0.000000,,2013-03-25 08:23:00,
2013-03-25 03:32:00,26.0,25.0,-100.00,NNW,334,10.0,19.0,97,0.00,,,0.07,0.000000,,2013-03-25 08:32:00,
2013-03-25 03:42:00,26.0,25.0,-100.00,NNW,334,10.0,19.0,97,0.00,,,0.07,0.000000,,2013-03-25 08:42:00,
2013-03-25 04:12:00,25.0,24.0,-100.00,NNW,329,9.0,21.0,97,0.00,,,0.07,0.000000,,2013-03-25 09:12:00,
2013-03-25 04:22:00,25.0,24.0,-100.00,NNW,329,9.0,21.0,97,0.00,,,0.07,0.000000,,2013-03-25 09:22:00,
2013-03-25 04:33:00,25.0,24.0,-100.00,NNW,329,9.0,21.0,97,0.00,,,0.07,0.000000,,2013-03-25 09:33:00,
2013-03-25 04:43:00,25.0,24.0,-100.00,NNW,329,9.0,21.0,97,0.00,,,0.07,0.000000,,2013-03-25 09:43:00,
2013-03-25 05:12:00,25.0,21.0,-100.00,NNW,328,10.0,21.0,86,0.00,,,0.07,0.000000,,2013-03-25 10:12:00,
2013-03-25 05:22:00,25.0,21.0,-100.00,NNW,328,10.0,21.0,86,0.00,,,0.07,0.000000,,2013-03-25 10:22:00,
2013-03-25 05:32:00,25.0,21.0,-100.00,NNW,328,10.0,21.0,86,0.00,,,0.07,0.000000,,2013-03-25 10:32:00,
2013-03-25 05:42:00,25.0,21.0,-100.00,NNW,328,10.0,21.0,86,0.00,,,0.07,0.000000,,2013-03-25 10:42:00,
2013-03-25 06:12:00,25.0,20.0,-100.00,NW,325,10.0,21.0,82,0.00,,,0.07,0.000000,,2013-03-25 11:12:00,
2013-03-25 06:23:00,25.0,20.0,-100.00,NW,325,10.0,21.0,82,0.00,,,0.07,0.000000,,2013-03-25 11:23:00,
2013-03-25 06:32:00,25.0,20.0,-100.00,NW,325,10.0,21.0,82,0.00,,,0.07,0.000000,,2013-03-25 11:32:00,
2013-03-25 06:42:00,25.0,20.0,-100.00,NW,325,10.0,21.0,82,0.00,,,0.07,0.000000,,2013-03-25 11:42:00,
2013-03-25 07:13:00,24.0,21.0,-100.00,NNW,329,9.0,19.0,89,0.00,,,0.07,0.000000,,2013-03-25 12:13:00,
2013-03-25 07:23:00,24.0,21.0,-100.00,NNW,329,9.0,19.0,89,0.00,,,0.07,0.000000,,2013-03-25 12:23:00,
2013-03-25 07:32:00,24.0,21.0,-100.00,NNW,329,9.0,19.0,89,0.00,,,0.07,0.000000,,2013-03-25 12:32:00,
2013-03-25 07:42:00,24.0,21.0,-100.00,NNW,329,9.0,19.0,89,0.00,,,0.07,0.000000,,2013-03-25 12:42:00,
2013-03-25 08:13:00,24.0,23.0,-100.00,NW,325,9.0,17.0,94,0.00,,,0.07,4.000000,,2013-03-25 13:13:00,
2013-03-25 08:22:00,24.0,23.0,-100.00,NW,325,9.0,17.0,94,0.00,,,0.07,4.000000,,2013-03-25 13:22:00,
2013-03-25 08:32:00,24.0,23.0,-100.00,NW,325,9.0,17.0,94,0.00,,,0.07,4.000000,,2013-03-25 13:32:00,
2013-03-25 08:42:00,24.0,23.0,-100.00,NW,325,9.0,17.0,94,0.00,,,0.07,4.000000,,2013-03-25 13:42:00,
2013-03-25 09:12:00,25.0,23.0,-100.00,NW,325,10.0,18.0,93,0.00,,,0.07,54.000000,,2013-03-25 14:12:00,
2013-03-25 09:22:00,25.0,23.0,-100.00,NW,325,10.0,18.0,93,0.00,,,0.07,54.000000,,2013-03-25 14:22:00,
2013-03-25 09:32:00,25.0,23.0,-100.00,NW,325,10.0,18.0,93,0.00,,,0.07,54.000000,,2013-03-25 14:32:00,
2013-03-25 09:42:00,25.0,23.0,-100.00,NW,325,10.0,18.0,93,0.00,,,0.07,54.000000,,2013-03-25 14:42:00,
2013-03-25 10:13:00,26.0,24.0,-100.00,NNW,328,9.0,20.0,91,0.00,,,0.07,154.000000,,2013-03-25 15:13:00,
2013-03-25 10:23:00,26.0,24.0,-100.00,NNW,328,9.0,20.0,91,0.00,,,0.07,154.000000,,2013-03-25 15:23:00,
2013-03-25 10:33:00,26.0,24.0,-100.00,NNW,328,9.0,20.0,91,0.00,,,0.07,154.000000,,2013-03-25 15:33:00,
2013-03-25 10:42:00,26.0,24.0,-100.00,NNW,328,9.0,20.0,91,0.00,,,0.07,154.000000,,2013-03-25 15:42:00,
2013-03-25 12:12:00,30.0,24.0,-100.00,NNW,334,10.0,18.0,79,-99.99,,,0.08,430.000000,,2013-03-25 17:12:00,
2013-03-25 12:23:00,30.0,24.0,-100.00,NNW,334,10.0,18.0,79,-99.99,,,0.08,430.000000,,2013-03-25 17:23:00,
2013-03-25 12:33:00,30.0,24.0,-100.00,NNW,334,10.0,18.0,79,-99.99,,,0.08,430.000000,,2013-03-25 17:33:00,
2013-03-25 12:42:00,30.0,24.0,-100.00,NNW,334,10.0,18.0,79,-99.99,,,0.08,430.000000,,2013-03-25 17:42:00,
2013-03-25 13:12:00,31.0,24.0,-100.00,NNW,337,9.0,18.0,76,0.01,,,0.09,410.000000,,2013-03-25 18:12:00,
2013-03-25 13:23:00,31.0,24.0,-100.00,NNW,337,9.0,18.0,76,0.01,,,0.09,410.000000,,2013-03-25 18:23:00,
2013-03-25 13:33:00,31.0,24.0,-100.00,NNW,337,9.0,18.0,76,0.01,,,0.09,410.000000,,2013-03-25 18:33:00,
2013-03-25 13:42:00,31.0,24.0,-100.00,NNW,337,9.0,18.0,76,0.01,,,0.09,410.000000,,2013-03-25 18:42:00,
2013-03-25 14:13:00,32.0,23.0,-100.00,NNW,334,9.0,19.0,70,0.00,,,0.07,420.000000,,2013-03-25 19:13:00,
2013-03-25 14:23:00,32.0,23.0,-100.00,NNW,334,9.0,19.0,70,0.00,,,0.07,420.000000,,2013-03-25 19:23:00,
2013-03-25 14:33:00,32.0,23.0,-100.00,NNW,334,9.0,19.0,70,0.00,,,0.07,420.000000,,2013-03-25 19:33:00,
2013-03-25 14:42:00,32.0,23.0,-100.00,NNW,334,9.0,19.0,70,0.00,,,0.07,420.000000,,2013-03-25 19:42:00,
2013-03-25 15:12:00,31.0,22.0,-100.00,NNW,327,8.0,21.0,70,0.00,,,0.02,385.000000,,2013-03-25 20:12:00,
2013-03-25 15:22:00,31.0,22.0,-100.00,NNW,327,8.0,21.0,70,0.00,,,0.02,385.000000,,2013-03-25 20:22:00,
2013-03-25 15:32:00,31.0,22.0,-100.00,NNW,327,8.0,21.0,70,0.00,,,0.02,385.000000,,2013-03-25 20:32:00,
2013-03-25 15:42:00,31.0,22.0,-100.00,NNW,327,8.0,21.0,70,0.00,,,0.02,385.000000,,2013-03-25 20:42:00,
2013-03-25 16:12:00,30.0,22.0,-100.00,NNW,328,9.0,17.0,73,0.00,,,0.02,193.000000,,2013-03-25 21:12:00,
2013-03-25 16:22:00,30.0,22.0,-100.00,NNW,328,9.0,17.0,73,0.00,,,0.02,193.000000,,2013-03-25 21:22:00,
2013-03-25 16:33:00,30.0,22.0,-100.00,NNW,328,9.0,17.0,73,0.00,,,0.02,193.000000,,2013-03-25 21:33:00,
2013-03-25 16:42:00,30.0,22.0,-100.00,NNW,328,9.0,17.0,73,0.00,,,0.02,193.000000,,2013-03-25 21:42:00,
2013-03-25 17:12:00,30.0,22.0,-100.00,NW,326,8.0,16.0,72,0.00,,,0.02,165.000000,,2013-03-25 22:12:00,
2013-03-25 17:23:00,30.0,22.0,-100.00,NW,326,8.0,16.0,72,0.00,,,0.02,165.000000,,2013-03-25 22:23:00,
2013-03-25 17:33:00,30.0,22.0,-100.00,NW,326,8.0,16.0,72,0.00,,,0.02,165.000000,,2013-03-25 22:33:00,
2013-03-25 17:42:00,30.0,22.0,-100.00,NW,326,8.0,16.0,72,0.00,,,0.02,165.000000,,2013-03-25 22:42:00,
2013-03-25 18:12:00,30.0,20.0,-100.00,NNW,331,8.0,17.0,67,0.00,,,0.02,107.000000,,2013-03-25 23:12:00,
2013-03-25 18:23:00,30.0,20.0,-100.00,NNW,331,8.0,17.0,67,0.00,,,0.02,107.000000,,2013-03-25 23:23:00,
2013-03-25 18:32:00,30.0,20.0,-100.00,NNW,331,8.0,17.0,67,0.00,,,0.02,107.000000,,2013-03-25 23:32:00,
2013-03-25 18:42:00,30.0,20.0,-100.00,NNW,331,8.0,17.0,67,0.00,,,0.02,107.000000,,2013-03-25 23:42:00,
2013-03-25 19:12:00,30.0,22.0,-100.00,NW,326,8.0,17.0,71,0.00,,,0.02,87.000000,,2013-03-26 00:12:00,
2013-03-25 19:22:00,30.0,22.0,-100.00,NW,326,8.0,17.0,71,0.00,,,0.02,87.000000,,2013-03-26 00:22:00,
2013-03-25 19:32:00,30.0,22.0,-100.00,NW,326,8.0,17.0,71,0.00,,,0.02,87.000000,,2013-03-26 00:32:00,
2013-03-25 19:42:00,30.0,22.0,-100.00,NW,326,8.0,17.0,71,0.00,,,0.02,87.000000,,2013-03-26 00:42:00,
2013-03-25 20:12:00,29.0,21.0,-100.00,NW,321,6.0,13.0,72,0.00,,,0.02,27.000000,,2013-03-26 01:12:00,
2013-03-25 20:22:00,29.0,21.0,-100.00,NW,321,6.0,13.0,72,0.00,,,0.02,27.000000,,2013-03-26 01:22:00,
2013-03-25 20:32:00,29.0,21.0,-100.00,NW,321,6.0,13.0,72,0.00,,,0.02,27.000000,,2013-03-26 01:32:00,
2013-03-25 20:42:00,29.0,21.0,-100.00,NW,321,6.0,13.0,72,0.00,,,0.02,27.000000,,2013-03-26 01:42:00,
2013-03-25 21:12:00,27.0,21.0,-100.00,NW,323,6.0,12.0,77,0.00,,,0.02,0.000000,,2013-03-26 02:12:00,
2013-03-25 21:22:00,27.0,21.0,-100.00,NW,323,6.0,12.0,77,0.00,,,0.02,0.000000,,2013-03-26 02:22:00,
2013-03-25 21:32:00,27.0,21.0,-100.00,NW,323,6.0,12.0,77,0.00,,,0.02,0.000000,,2013-03-26 02:32:00,
2013-03-25 21:42:00,27.0,21.0,-100.00,NW,323,6.0,12.0,77,0.00,,,0.02,0.000000,,2013-03-26 02:42:00,
2013-03-25 22:12:00,26.0,20.0,-100.00,NW,319,5.0,11.0,79,0.00,,,0.02,0.000000,,2013-03-26 03:12:00,
2013-03-25 22:22:00,26.0,20.0,-100.00,NW,319,5.0,11.0,79,0.00,,,0.02,0.000000,,2013-03-26 03:22:00,
2013-03-25 22:33:00,26.0,20.0,-100.00,NW,319,5.0,11.0,79,0.00,,,0.02,0.000000,,2013-03-26 03:33:00,
2013-03-25 22:42:00,26.0,20.0,-100.00,NW,319,5.0,11.0,79,0.00,,,0.02,0.000000,,2013-03-26 03:42:00,
2013-03-25 23:12:00,25.0,20.0,-100.00,NW,314,5.0,10.0,81,0.00,,,0.02,0.000000,,2013-03-26 04:12:00,
2013-03-25 23:23:00,25.0,20.0,-100.00,NW,314,5.0,10.0,81,0.00,,,0.02,0.000000,,2013-03-26 04:23:00,
2013-03-25 23:32:00,25.0,20.0,-100.00,NW,314,5.0,10.0,81,0.00,,,0.02,0.000000,,2013-03-26 04:32:00,
2013-03-25 23:43:00,25.0,20.0,-100.00,NW,314,5.0,10.0,81,0.00,,,0.02,0.000000,,2013-03-26 04:43:00,